Time;durP1;ratioP1;P1;durP2;ratioP2;P2;SDS_P1;SDS_P2;PMS_P1;PMS_P2;Temp;Humidity;BMP_temperature;BMP_pressure;BME280_temperature;BME280_humidity;BME280_pressure;Samples;Min_cycle;Max_cycle;Signal;HPM_P1;HPM_P2
2021/06/09 00:00:48;;;;;;;12.25;10.00;;;19.10;72.10;;;;;;4906720;29;20107;-74
2021/06/09 00:03:13;;;;;;;11.15;8.77;;;19.10;72.10;;;;;;4942300;29;20038;-74
2021/06/09 00:05:39;;;;;;;12.50;9.68;;;19.10;72.80;;;;;;4921576;29;20463;-75
2021/06/09 00:08:05;;;;;;;11.60;8.65;;;19.10;72.90;;;;;;4921204;29;20536;-75
2021/06/09 00:10:31;;;;;;;9.52;7.70;;;19.10;72.90;;;;;;4921490;29;20507;-75
2021/06/09 00:12:57;;;;;;;15.20;10.68;;;19.10;73.20;;;;;;4921257;29;20377;-75
2021/06/09 00:15:23;;;;;;;9.63;7.47;;;19.00;73.20;;;;;;4920697;29;20040;-75
2021/06/09 00:17:48;;;;;;;9.77;7.85;;;19.00;73.70;;;;;;4921004;29;20139;-75
2021/06/09 00:20:19;;;;;;;12.35;8.88;;;19.00;72.90;;;;;;4937977;29;20617;-75
2021/06/09 00:22:44;;;;;;;;;;;19.00;73.10;;;;;;4938482;29;20519;-76
2021/06/09 00:25:17;;;;;;;12.75;10.55;;;18.90;73.00;;;;;;4937961;29;19958;-76
2021/06/09 00:27:46;;;;;;;13.18;10.48;;;18.90;72.80;;;;;;4938107;29;20023;-75
2021/06/09 00:30:14;;;;;;;9.35;6.90;;;18.90;73.70;;;;;;4920638;29;20020;-76
2021/06/09 00:32:40;;;;;;;10.98;8.88;;;18.90;72.90;;;;;;4938166;29;20137;-75
2021/06/09 00:35:06;;;;;;;14.10;10.00;;;18.90;73.10;;;;;;4920428;29;20035;-75
2021/06/09 00:37:32;;;;;;;11.20;9.30;;;18.90;73.30;;;;;;4920278;29;20031;-76
2021/06/09 00:39:57;;;;;;;12.80;10.38;;;18.90;73.40;;;;;;4937747;29;20031;-75
2021/06/09 00:42:23;;;;;;;13.32;10.05;;;18.90;73.40;;;;;;4937306;29;20111;-75
2021/06/09 00:44:49;;;;;;;14.30;11.50;;;18.90;73.70;;;;;;4938063;29;20480;-75
2021/06/09 00:47:23;;;;;;;16.42;11.18;;;18.80;73.80;;;;;;4920151;29;20035;-75
2021/06/09 00:49:49;;;;;;;13.10;10.73;;;18.80;74.20;;;;;;4920265;29;20039;-76
2021/06/09 00:52:15;;;;;;;13.20;9.88;;;18.80;74.50;;;;;;4937720;29;20118;-76
2021/06/09 00:54:41;;;;;;;15.20;11.15;;;18.80;75.10;;;;;;4920684;29;20127;-76
2021/06/09 00:57:08;;;;;;;14.18;11.52;;;18.80;74.90;;;;;;4919856;29;20052;-76
2021/06/09 00:59:35;;;;;;;16.30;11.45;;;18.80;75.20;;;;;;4937423;29;20039;-75
2021/06/09 01:02:00;;;;;;;13.35;10.88;;;18.80;75.50;;;;;;4937077;29;20023;-76
2021/06/09 01:04:26;;;;;;;13.85;10.73;;;18.70;75.50;;;;;;4935959;29;20091;-76
2021/06/09 01:06:52;;;;;;;13.98;11.35;;;18.70;75.80;;;;;;4920125;29;20030;-76
2021/06/09 01:09:17;;;;;;;13.98;10.82;;;18.70;76.10;;;;;;4937050;29;20024;-76
2021/06/09 01:11:43;;;;;;;15.10;12.85;;;18.70;76.20;;;;;;4920173;29;20031;-75
2021/06/09 01:14:09;;;;;;;14.80;11.52;;;18.70;76.40;;;;;;4919933;29;20034;-76
2021/06/09 01:16:35;;;;;;;14.80;11.18;;;18.60;76.50;;;;;;4920104;29;20046;-75
2021/06/09 01:19:01;;;;;;;13.55;11.20;;;18.60;76.60;;;;;;4921128;29;20555;-75
2021/06/09 01:21:29;;;;;;;15.60;12.77;;;18.60;76.60;;;;;;4938433;29;20028;-75
2021/06/09 01:23:55;;;;;;;15.15;12.35;;;18.60;77.00;;;;;;4920111;29;20081;-75
2021/06/09 01:26:21;;;;;;;17.38;12.48;;;18.50;76.90;;;;;;4919887;29;20422;-75
2021/06/09 01:28:46;;;;;;;15.40;11.18;;;18.50;77.00;;;;;;4919848;29;20155;-75
2021/06/09 01:31:13;;;;;;;12.70;11.00;;;18.50;77.10;;;;;;4919662;29;20126;-75
2021/06/09 01:33:39;;;;;;;15.93;11.93;;;18.50;77.50;;;;;;4937023;29;20036;-75
2021/06/09 01:36:05;;;;;;;15.60;11.00;;;18.50;77.80;;;;;;4936832;29;20031;-75
2021/06/09 01:38:30;;;;;;;14.40;11.85;;;18.40;77.80;;;;;;4919915;29;20074;-76
2021/06/09 01:40:56;;;;;;;13.93;10.68;;;18.50;77.90;;;;;;4921634;29;20120;-75
2021/06/09 01:43:22;;;;;;;16.85;13.23;;;18.40;77.90;;;;;;4954248;29;20028;-73
2021/06/09 01:45:50;;;;;;;15.57;11.48;;;18.40;77.90;;;;;;4943055;29;20027;-75
2021/06/09 01:48:16;;;;;;;15.52;13.05;;;18.40;78.40;;;;;;4943841;29;20028;-75
2021/06/09 01:50:42;;;;;;;16.55;12.75;;;18.30;78.30;;;;;;4936295;29;20028;-74
2021/06/09 01:53:08;;;;;;;15.90;13.52;;;18.40;78.60;;;;;;4921309;29;20472;-74
2021/06/09 01:55:37;;;;;;;16.63;12.63;;;18.30;78.60;;;;;;4938144;29;20038;-76
2021/06/09 01:58:03;;;;;;;17.02;14.68;;;18.30;78.80;;;;;;4925732;29;20047;-76
2021/06/09 02:00:33;;;;;;;16.33;14.48;;;18.30;79.00;;;;;;4953974;29;20071;-77
2021/06/09 02:02:59;;;;;;;18.45;13.77;;;18.30;79.10;;;;;;4923926;29;20028;-75
2021/06/09 02:05:30;;;;;;;18.00;14.73;;;18.30;79.10;;;;;;4936159;29;20063;-76
2021/06/09 02:07:58;;;;;;;16.88;13.93;;;18.30;79.10;;;;;;4936302;29;20083;-74
2021/06/09 02:10:25;;;;;;;18.25;15.38;;;18.30;79.30;;;;;;4934969;29;20032;-75
2021/06/09 02:12:53;;;;;;;16.42;13.70;;;18.30;79.50;;;;;;4919145;29;20079;-75
2021/06/09 02:15:20;;;;;;;18.77;15.15;;;18.30;79.80;;;;;;4935671;29;20519;-75
2021/06/09 02:18:15;;;;;;;19.50;15.50;;;18.20;79.80;;;;;;4935761;29;20413;-74
2021/06/09 02:20:47;;;;;;;17.92;14.68;;;18.20;79.90;;;;;;4918968;29;20031;-75
2021/06/09 02:23:16;;;;;;;19.33;15.88;;;18.20;79.80;;;;;;4918619;29;20038;-75
2021/06/09 02:25:45;;;;;;;20.27;16.70;;;18.20;79.80;;;;;;4936254;29;20028;-75
2021/06/09 02:28:11;;;;;;;18.58;15.85;;;18.20;79.90;;;;;;4918696;29;20028;-75
2021/06/09 02:30:37;;;;;;;18.20;15.93;;;18.10;80.00;;;;;;4918707;29;20024;-75
2021/06/09 02:33:03;;;;;;;17.33;14.80;;;18.10;80.20;;;;;;4918783;29;20032;-75
2021/06/09 02:35:35;;;;;;;19.38;16.23;;;18.10;80.40;;;;;;4918569;29;20535;-75
2021/06/09 02:38:01;;;;;;;19.92;16.85;;;18.10;80.90;;;;;;4918753;29;20020;-75
2021/06/09 02:40:26;;;;;;;20.77;17.70;;;18.10;80.50;;;;;;4918431;29;20166;-74
2021/06/09 02:42:52;;;;;;;20.42;17.90;;;18.10;80.70;;;;;;4918322;29;20599;-76
2021/06/09 02:45:19;;;;;;;21.83;18.00;;;18.00;80.90;;;;;;4918282;29;20024;-74
2021/06/09 02:47:53;;;;;;;22.10;17.83;;;18.00;81.00;;;;;;4935472;29;20028;-74
2021/06/09 02:50:19;;;;;;;25.45;17.80;;;18.00;81.20;;;;;;4935172;29;20020;-75
2021/06/09 02:53:08;;;;;;;22.20;18.00;;;17.90;81.30;;;;;;4918395;29;20040;-75
2021/06/09 02:55:39;;;;;;;21.37;18.57;;;17.90;81.40;;;;;;4933954;29;20500;-76
2021/06/09 02:58:27;;;;;;;21.45;17.83;;;17.90;81.70;;;;;;4918296;29;20047;-76
2021/06/09 03:01:06;;;;;;;22.42;18.77;;;17.90;81.60;;;;;;4918214;29;20457;-76
2021/06/09 03:04:01;;;;;;;22.10;17.92;;;17.80;81.70;;;;;;4935206;29;20028;-76
2021/06/09 03:06:33;;;;;;;25.90;19.08;;;17.90;82.40;;;;;;4935250;29;20028;-75
2021/06/09 03:09:07;;;;;;;20.95;17.60;;;17.80;82.30;;;;;;4935201;29;20070;-75
2021/06/09 03:11:48;;;;;;;25.25;18.52;;;17.80;82.50;;;;;;4935410;29;20016;-75
2021/06/09 03:17:31;;;;;;;27.10;20.40;;;17.80;82.70;;;;;;4935248;29;20071;-75
2021/06/09 03:20:23;;;;;;;23.58;19.20;;;17.70;82.70;;;;;;4918014;29;20019;-76
2021/06/09 03:23:03;;;;;;;20.35;18.08;;;17.80;82.70;;;;;;4939068;29;20023;-76
2021/06/09 03:25:49;;;;;;;23.43;19.97;;;17.70;82.90;;;;;;4939168;29;20036;-75
2021/06/09 03:28:32;;;;;;;21.13;17.92;;;17.70;82.90;;;;;;4938420;29;20385;-76
2021/06/09 03:31:02;;;;;;;25.00;20.70;;;17.80;83.00;;;;;;4939068;29;20078;-76
2021/06/09 03:33:34;;;;;;;25.85;20.05;;;17.70;83.20;;;;;;4919157;29;20150;-76
2021/06/09 03:36:08;;;;;;;22.48;20.05;;;17.70;83.30;;;;;;4919716;29;20070;-75
2021/06/09 03:38:43;;;;;;;23.08;19.85;;;17.70;83.40;;;;;;4921832;29;20024;-75
2021/06/09 03:41:12;;;;;;;22.45;19.30;;;17.70;83.20;;;;;;4921908;29;20381;-75
2021/06/09 03:43:42;;;;;;;25.13;20.20;;;17.70;83.20;;;;;;4943281;29;20099;-75
2021/06/09 03:46:08;;;;;;;24.98;20.70;;;17.70;83.30;;;;;;4924713;29;20414;-76
2021/06/09 03:48:39;;;;;;;22.98;20.35;;;17.70;83.40;;;;;;4927648;29;20028;-75
2021/06/09 03:51:06;;;;;;;23.42;20.75;;;17.70;83.70;;;;;;4952642;29;20032;-76
2021/06/09 03:53:33;;;;;;;22.98;20.48;;;17.70;83.70;;;;;;4934077;29;20046;-75
2021/06/09 03:56:03;;;;;;;24.08;20.95;;;17.70;83.70;;;;;;4922220;29;20032;-75
2021/06/09 03:58:29;;;;;;;;;;;17.70;83.50;;;;;;4921487;29;20416;-75
2021/06/09 04:00:56;;;;;;;25.92;21.80;;;17.80;83.50;;;;;;4923480;29;19907;-75
2021/06/09 04:03:22;;;;;;;24.02;21.20;;;17.70;83.30;;;;;;4924459;29;20016;-74
2021/06/09 04:05:49;;;;;;;27.33;21.98;;;17.70;83.40;;;;;;4944595;29;20032;-75
2021/06/09 04:08:16;;;;;;;28.80;21.75;;;17.80;84.00;;;;;;4936448;29;20027;-75
2021/06/09 04:10:44;;;;;;;28.30;21.58;;;17.80;83.40;;;;;;4939831;29;20370;-75
2021/06/09 04:13:10;;;;;;;24.30;20.42;;;17.80;83.50;;;;;;4924718;29;20381;-76
2021/06/09 04:15:38;;;;;;;27.08;21.92;;;17.80;83.50;;;;;;4921736;29;20043;-75
2021/06/09 04:18:06;;;;;;;27.08;22.85;;;17.90;83.50;;;;;;4937984;29;20074;-76
2021/06/09 04:20:33;;;;;;;25.52;21.58;;;17.90;83.30;;;;;;4938047;29;20107;-76
2021/06/09 04:22:59;;;;;;;27.52;21.73;;;17.90;83.30;;;;;;4938280;29;20106;-77
2021/06/09 04:25:25;;;;;;;26.15;22.30;;;18.00;83.50;;;;;;4920609;29;20191;-76
2021/06/09 04:27:51;;;;;;;26.40;22.85;;;18.00;83.30;;;;;;4938044;29;20023;-76
2021/06/09 04:30:19;;;;;;;27.08;22.98;;;18.10;83.20;;;;;;4920809;29;20051;-75
2021/06/09 04:32:57;;;;;;;28.30;21.95;;;18.10;83.00;;;;;;4920067;29;20540;-75
2021/06/09 04:35:28;;;;;;;27.30;22.90;;;18.20;82.90;;;;;;4920690;29;20039;-75
2021/06/09 04:37:54;;;;;;;26.40;21.65;;;18.30;82.70;;;;;;4937894;29;20086;-75
2021/06/09 04:40:25;;;;;;;25.17;22.33;;;18.30;82.60;;;;;;4920571;29;20480;-75
2021/06/09 04:42:53;;;;;;;25.10;22.20;;;18.30;82.30;;;;;;4938056;29;20032;-75
2021/06/09 04:45:20;;;;;;;24.30;21.00;;;18.40;81.80;;;;;;4920570;29;20499;-76
2021/06/09 04:47:46;;;;;;;26.33;22.08;;;18.50;81.50;;;;;;4937857;29;20059;-75
2021/06/09 04:50:18;;;;;;;26.25;21.95;;;18.60;81.10;;;;;;4920582;29;20030;-76
2021/06/09 04:52:44;;;;;;;32.40;22.15;;;18.60;81.00;;;;;;4920144;29;20036;-76
2021/06/09 04:55:10;;;;;;;26.52;22.00;;;18.70;81.00;;;;;;4937274;29;20066;-75
2021/06/09 04:57:36;;;;;;;25.52;21.70;;;18.80;80.80;;;;;;4935888;29;20062;-76
2021/06/09 05:00:06;;;;;;;25.73;22.00;;;18.90;80.30;;;;;;4937456;29;20435;-77
2021/06/09 05:02:32;;;;;;;;;;;19.00;80.00;;;;;;4937658;29;20028;-75
2021/06/09 05:04:57;;;;;;;25.90;19.85;;;19.00;79.60;;;;;;4937396;29;20271;-76
2021/06/09 05:07:23;;;;;;;24.60;21.15;;;19.10;79.10;;;;;;4920107;29;20461;-76
2021/06/09 05:09:49;;;;;;;26.75;23.63;;;19.10;78.90;;;;;;4920339;29;20069;-75
2021/06/09 05:12:24;;;;;;;28.10;25.10;;;19.20;78.90;;;;;;4919934;29;20051;-77
2021/06/09 05:14:58;;;;;;;26.00;22.60;;;19.30;78.40;;;;;;4920036;29;20036;-75
2021/06/09 05:17:28;;;;;;;29.83;26.33;;;19.40;78.00;;;;;;4936936;29;20078;-76
2021/06/09 05:19:56;;;;;;;29.95;24.88;;;19.50;77.80;;;;;;4920017;29;20042;-76
2021/06/09 05:22:31;;;;;;;30.50;25.90;;;19.50;77.50;;;;;;4919506;29;20032;-76
2021/06/09 05:25:01;;;;;;;25.88;23.13;;;19.60;77.10;;;;;;4936837;29;20043;-75
2021/06/09 05:27:27;;;;;;;30.38;25.63;;;19.70;76.70;;;;;;4919647;29;20023;-77
2021/06/09 05:29:53;;;;;;;25.17;21.35;;;19.80;76.50;;;;;;4919612;29;20030;-76
2021/06/09 05:32:19;;;;;;;27.33;24.42;;;19.90;76.40;;;;;;4936434;29;20028;-76
2021/06/09 05:34:46;;;;;;;28.33;24.23;;;20.00;76.10;;;;;;4919683;29;20063;-76
2021/06/09 05:37:15;;;;;;;28.98;24.80;;;20.20;75.70;;;;;;4921357;29;20019;-76
2021/06/09 05:39:41;;;;;;;28.58;24.33;;;20.20;75.40;;;;;;4923082;29;20024;-75
2021/06/09 05:42:13;;;;;;;27.17;24.15;;;20.30;75.10;;;;;;4920729;29;20123;-76
2021/06/09 05:44:47;;;;;;;28.00;24.92;;;20.50;74.80;;;;;;4936459;29;20492;-77
2021/06/09 05:47:13;;;;;;;33.08;29.48;;;20.60;74.40;;;;;;4927480;29;20042;-74
2021/06/09 05:49:39;;;;;;;34.08;30.33;;;20.70;73.80;;;;;;4930077;29;20031;-76
2021/06/09 05:52:05;;;;;;;30.27;27.08;;;20.70;73.30;;;;;;4940641;29;20028;-76
2021/06/09 05:54:39;;;;;;;33.05;26.83;;;20.80;73.10;;;;;;4956440;29;20046;-76
2021/06/09 05:57:06;;;;;;;39.95;32.65;;;20.90;72.70;;;;;;4920593;29;20051;-75
2021/06/09 05:59:33;;;;;;;38.55;31.90;;;21.00;72.60;;;;;;4919715;29;20030;-75
2021/06/09 06:01:59;;;;;;;31.35;27.40;;;21.10;72.20;;;;;;4936512;29;20035;-76
2021/06/09 06:04:26;;;;;;;25.25;21.80;;;21.10;71.90;;;;;;4934877;29;20168;-75
2021/06/09 06:06:52;;;;;;;34.80;30.02;;;21.20;71.90;;;;;;4919315;29;20023;-76
2021/06/09 06:09:18;;;;;;;30.65;23.35;;;21.30;71.60;;;;;;4936018;29;20028;-75
2021/06/09 06:11:45;;;;;;;29.60;25.08;;;21.30;71.60;;;;;;4948246;29;20031;-76
2021/06/09 06:14:11;;;;;;;32.10;28.63;;;21.40;71.40;;;;;;4966188;29;20027;-75
2021/06/09 06:16:38;;;;;;;31.00;26.52;;;21.50;71.80;;;;;;4939905;29;20122;-75
2021/06/09 06:19:05;;;;;;;33.42;27.50;;;21.40;71.20;;;;;;4957597;29;20019;-76
2021/06/09 06:21:31;;;;;;;29.50;26.15;;;21.60;71.50;;;;;;4958661;29;20031;-75
2021/06/09 06:23:57;;;;;;;30.15;26.33;;;21.70;70.90;;;;;;4941222;29;20114;-75
2021/06/09 06:26:24;;;;;;;29.70;25.45;;;21.80;70.80;;;;;;4937985;29;20142;-75
2021/06/09 06:28:52;;;;;;;22.90;20.58;;;22.00;70.60;;;;;;4938282;29;20152;-76
2021/06/09 06:31:26;;;;;;;15.20;12.82;;;22.10;69.90;;;;;;4955372;29;20023;-74
2021/06/09 06:33:56;;;;;;;10.93;8.85;;;22.10;67.70;;;;;;4954876;29;20031;-74
2021/06/09 06:36:27;;;;;;;5.88;4.32;;;22.10;67.50;;;;;;4937733;29;20031;-76
2021/06/09 06:38:54;;;;;;;5.07;3.05;;;22.20;66.30;;;;;;4953742;29;20070;-75
2021/06/09 06:41:21;;;;;;;18.35;14.27;;;22.30;65.30;;;;;;4938501;29;20031;-76
2021/06/09 06:43:48;;;;;;;10.40;8.38;;;22.40;65.90;;;;;;4956442;29;20054;-76
2021/06/09 06:46:18;;;;;;;24.45;19.25;;;22.50;65.50;;;;;;4944008;29;20031;-75
2021/06/09 06:48:46;;;;;;;32.85;27.77;;;22.60;65.60;;;;;;4958407;29;20651;-75
2021/06/09 06:51:15;;;;;;;36.17;30.45;;;22.70;67.00;;;;;;4938085;29;20118;-76
2021/06/09 06:53:46;;;;;;;36.28;32.05;;;22.80;67.60;;;;;;4936978;29;20031;-75
2021/06/09 06:56:13;;;;;;;28.98;21.83;;;23.00;66.80;;;;;;4937088;29;20126;-74
2021/06/09 06:58:39;;;;;;;25.55;20.92;;;23.00;66.00;;;;;;4954168;29;20263;-74
2021/06/09 07:01:06;;;;;;;32.83;28.02;;;23.10;66.20;;;;;;4954675;29;20038;-73
2021/06/09 07:03:38;;;;;;;29.02;23.65;;;23.20;65.90;;;;;;4937369;29;20528;-74
2021/06/09 07:06:06;;;;;;;26.88;23.85;;;23.20;66.00;;;;;;4937310;29;20023;-74
2021/06/09 07:08:35;;;;;;;30.45;24.67;;;23.30;65.80;;;;;;4954231;29;20117;-73
2021/06/09 07:11:01;;;;;;;25.70;22.88;;;23.40;65.50;;;;;;4954538;29;20031;-73
2021/06/09 07:13:28;;;;;;;25.05;21.42;;;23.40;64.60;;;;;;4936908;29;20071;-73
2021/06/09 07:16:00;;;;;;;26.23;23.42;;;23.40;64.70;;;;;;4937247;29;20387;-73
2021/06/09 07:18:27;;;;;;;24.88;22.23;;;23.60;65.00;;;;;;4953873;29;20023;-74
2021/06/09 07:20:53;;;;;;;32.00;27.35;;;23.70;65.30;;;;;;4954421;29;20034;-74
2021/06/09 07:23:19;;;;;;;26.15;19.98;;;23.80;65.20;;;;;;4954327;29;20028;-74
2021/06/09 07:25:44;;;;;;;22.52;20.00;;;23.90;64.60;;;;;;4936762;29;20057;-73
2021/06/09 07:28:11;;;;;;;20.55;17.80;;;24.10;64.00;;;;;;4954424;29;20039;-73
2021/06/09 07:30:39;;;;;;;20.27;16.25;;;24.20;63.10;;;;;;4956248;28;20030;-72
2021/06/09 07:33:05;;;;;;;22.30;19.05;;;24.40;62.70;;;;;;4960500;29;20020;-74
2021/06/09 07:35:31;;;;;;;20.10;17.80;;;24.40;62.20;;;;;;4937169;29;20035;-74
2021/06/09 07:38:09;;;;;;;19.70;16.73;;;24.40;62.40;;;;;;4950579;28;20027;-72
2021/06/09 07:40:39;;;;;;;17.00;15.10;;;24.50;62.40;;;;;;4952238;29;20468;-72
2021/06/09 07:43:13;;;;;;;18.23;16.27;;;24.50;62.10;;;;;;4935490;29;20030;-72
2021/06/09 07:45:41;;;;;;;16.98;15.15;;;24.70;61.40;;;;;;4950010;28;20035;-73
2021/06/09 07:48:07;;;;;;;21.30;18.95;;;24.70;61.60;;;;;;4954999;29;20019;-73
2021/06/09 07:50:44;;;;;;;23.25;20.13;;;24.70;61.50;;;;;;4964458;28;20091;-72
2021/06/09 07:53:11;;;;;;;21.55;18.60;;;24.70;60.80;;;;;;4969433;28;20518;-73
2021/06/09 07:55:42;;;;;;;20.83;18.63;;;24.70;60.60;;;;;;4965138;28;20026;-74
2021/06/09 07:58:09;;;;;;;19.20;17.20;;;24.80;60.90;;;;;;4963024;28;20448;-73
2021/06/09 08:00:35;;;;;;;20.50;18.05;;;24.90;60.70;;;;;;4955747;28;20062;-73
2021/06/09 08:03:02;;;;;;;24.75;22.23;;;25.00;60.10;;;;;;4966239;28;20082;-73
2021/06/09 08:05:28;;;;;;;14.82;13.15;;;25.10;59.70;;;;;;4963582;28;20480;-73
2021/06/09 08:07:54;;;;;;;15.55;13.50;;;25.20;59.60;;;;;;4959412;28;20477;-72
2021/06/09 08:10:21;;;;;;;13.80;12.32;;;25.30;59.40;;;;;;4972951;28;20033;-74
2021/06/09 08:12:54;;;;;;;15.82;13.07;;;25.30;59.30;;;;;;4961406;28;20043;-73
2021/06/09 08:15:20;;;;;;;14.63;13.20;;;25.50;59.00;;;;;;4966976;28;20039;-74
2021/06/09 08:17:47;;;;;;;15.25;13.57;;;25.60;58.70;;;;;;4952047;28;20033;-73
2021/06/09 08:20:16;;;;;;;16.75;13.23;;;25.70;58.60;;;;;;4939518;28;20028;-73
2021/06/09 08:22:45;;;;;;;16.02;14.40;;;25.80;58.20;;;;;;4951367;29;20230;-72
2021/06/09 08:25:13;;;;;;;15.85;14.25;;;25.90;57.50;;;;;;4955414;28;20111;-73
2021/06/09 08:27:40;;;;;;;27.88;23.77;;;26.00;57.50;;;;;;4967569;28;20031;-74
2021/06/09 08:30:07;;;;;;;19.98;15.13;;;26.10;56.90;;;;;;4972906;28;20481;-71
2021/06/09 08:32:33;;;;;;;16.98;13.93;;;26.10;56.60;;;;;;4944239;28;20023;-73
2021/06/09 08:34:59;;;;;;;15.88;14.10;;;26.10;56.80;;;;;;4969594;28;20032;-73
2021/06/09 08:37:27;;;;;;;19.45;16.23;;;26.30;56.40;;;;;;4966360;28;20034;-72
2021/06/09 08:39:52;;;;;;;15.43;13.80;;;26.40;56.40;;;;;;4962101;28;20023;-72
2021/06/09 08:42:19;;;;;;;17.15;13.32;;;26.50;56.50;;;;;;4972523;28;20026;-72
2021/06/09 08:44:49;;;;;;;12.73;10.52;;;26.60;55.50;;;;;;4960489;28;20022;-73
2021/06/09 08:47:15;;;;;;;13.85;11.60;;;26.70;55.70;;;;;;4967105;28;20091;-73
2021/06/09 08:49:42;;;;;;;15.10;13.50;;;26.80;55.40;;;;;;4968009;28;20475;-73
2021/06/09 08:52:11;;;;;;;13.18;11.15;;;26.80;54.80;;;;;;4959936;28;20055;-73
2021/06/09 08:54:41;;;;;;;12.93;11.55;;;26.90;54.70;;;;;;4959286;28;20106;-73
2021/06/09 08:57:06;;;;;;;;;;;27.00;54.50;;;;;;4968504;28;20051;-72
2021/06/09 08:59:33;;;;;;;14.30;10.82;;;27.20;53.90;;;;;;4949277;28;19960;-73
2021/06/09 09:01:59;;;;;;;13.10;11.50;;;27.20;54.00;;;;;;4960960;28;20495;-72
2021/06/09 09:04:27;;;;;;;13.65;12.15;;;27.30;53.70;;;;;;4972133;28;20027;-72
2021/06/09 09:06:52;;;;;;;19.55;15.70;;;27.40;53.60;;;;;;4961484;28;20055;-72
2021/06/09 09:09:18;;;;;;;17.42;14.85;;;27.60;53.20;;;;;;4966245;28;20083;-72
2021/06/09 09:11:43;;;;;;;15.20;13.00;;;27.50;52.70;;;;;;4968254;28;20030;-72
2021/06/09 09:14:10;;;;;;;13.43;12.00;;;27.60;53.30;;;;;;4959516;28;20034;-73
2021/06/09 09:16:36;;;;;;;12.25;10.63;;;27.70;53.40;;;;;;4941447;28;20530;-73
2021/06/09 09:19:02;;;;;;;12.27;9.48;;;27.80;53.20;;;;;;4968185;28;20027;-73
2021/06/09 09:21:36;;;;;;;11.32;9.23;;;27.90;53.70;;;;;;4964452;28;20065;-72
2021/06/09 09:24:05;;;;;;;13.15;11.02;;;27.90;54.50;;;;;;4964242;28;20051;-73
2021/06/09 09:26:34;;;;;;;20.00;16.33;;;27.80;54.30;;;;;;4957646;28;20099;-75
2021/06/09 09:29:18;;;;;;;19.65;17.60;;;27.80;51.80;;;;;;4949323;28;20221;-74
2021/06/09 09:31:55;;;;;;;15.70;14.02;;;27.70;48.50;;;;;;4965055;28;20029;-75
2021/06/09 09:34:40;;;;;;;18.45;14.80;;;27.80;52.70;;;;;;4974654;28;20488;-75
2021/06/09 09:37:18;;;;;;;11.10;9.77;;;28.00;48.90;;;;;;4942772;29;20035;-76
2021/06/09 09:39:51;;;;;;;12.95;11.35;;;28.10;50.70;;;;;;4968040;28;20046;-75
2021/06/09 09:42:19;;;;;;;13.70;11.10;;;28.30;49.80;;;;;;4955458;28;20502;-75
2021/06/09 09:44:46;;;;;;;12.15;10.82;;;28.40;49.10;;;;;;4954095;29;20032;-76
2021/06/09 09:47:18;;;;;;;12.73;10.63;;;28.40;51.90;;;;;;4946449;28;20472;-75
2021/06/09 09:49:44;;;;;;;17.02;14.18;;;28.30;52.20;;;;;;4942279;29;20030;-76
2021/06/09 09:52:10;;;;;;;14.30;10.60;;;28.20;50.00;;;;;;4974120;28;20387;-75
2021/06/09 09:54:38;;;;;;;15.32;13.55;;;28.30;52.40;;;;;;4967226;28;20030;-76
2021/06/09 09:57:09;;;;;;;17.63;15.65;;;28.40;50.50;;;;;;4966712;29;20492;-76
2021/06/09 09:59:41;;;;;;;19.77;17.20;;;28.40;51.00;;;;;;4973412;28;20502;-75
2021/06/09 10:02:15;;;;;;;20.17;17.88;;;28.70;47.90;;;;;;4959935;28;20033;-75
2021/06/09 10:04:40;;;;;;;16.55;14.23;;;28.80;47.70;;;;;;4943922;28;20653;-75
2021/06/09 10:07:10;;;;;;;16.10;14.50;;;28.80;45.70;;;;;;4950458;29;20023;-76
2021/06/09 10:09:42;;;;;;;16.05;14.38;;;28.80;50.10;;;;;;4948853;28;20046;-74
2021/06/09 10:12:11;;;;;;;8.88;6.80;;;28.80;45.90;;;;;;4938449;29;20027;-75
2021/06/09 10:14:49;;;;;;;18.15;14.95;;;28.80;50.90;;;;;;4937789;29;20118;-75
2021/06/09 10:17:17;;;;;;;18.25;15.93;;;29.00;46.50;;;;;;4956398;29;20082;-75
2021/06/09 10:19:42;;;;;;;16.90;13.88;;;29.10;48.30;;;;;;4957371;28;20027;-74
2021/06/09 10:22:18;;;;;;;19.25;15.43;;;29.10;48.50;;;;;;4950963;29;20114;-74
2021/06/09 10:24:48;;;;;;;8.63;6.32;;;29.20;42.80;;;;;;4957737;29;20032;-75
2021/06/09 10:27:14;;;;;;;;;;;29.30;49.60;;;;;;4937917;29;20030;-74
2021/06/09 10:29:40;;;;;;;13.07;10.60;;;29.50;43.20;;;;;;4937111;29;20358;-73
2021/06/09 10:32:11;;;;;;;11.23;9.07;;;29.40;45.80;;;;;;4954199;28;20091;-75
2021/06/09 10:34:38;;;;;;;10.95;8.95;;;29.30;46.30;;;;;;4937042;29;20020;-75
2021/06/09 10:37:07;;;;;;;7.28;5.32;;;29.50;46.30;;;;;;4955310;29;20031;-75
2021/06/09 10:39:41;;;;;;;15.45;12.63;;;29.80;51.50;;;;;;4937333;29;20110;-74
2021/06/09 10:42:11;;;;;;;16.70;14.82;;;30.10;44.10;;;;;;4954952;29;20409;-75
2021/06/09 10:44:40;;;;;;;10.40;7.80;;;30.20;41.90;;;;;;4955134;29;20050;-75
2021/06/09 10:47:12;;;;;;;12.18;9.60;;;30.10;48.80;;;;;;4954837;29;20030;-75
2021/06/09 10:49:38;;;;;;;11.23;6.78;;;30.00;48.70;;;;;;4954044;29;20027;-74
2021/06/09 10:52:05;;;;;;;7.25;5.72;;;30.20;47.90;;;;;;4937209;29;20027;-75
2021/06/09 10:54:32;;;;;;;8.68;6.68;;;30.40;49.50;;;;;;4953867;29;20457;-75
2021/06/09 10:56:58;;;;;;;9.48;7.55;;;30.40;48.50;;;;;;4953857;29;20042;-75
2021/06/09 10:59:27;;;;;;;20.40;15.77;;;30.50;50.90;;;;;;4954379;29;20415;-75
2021/06/09 11:02:00;;;;;;;16.38;14.68;;;30.40;40.70;;;;;;4954017;29;20064;-75
2021/06/09 11:04:33;;;;;;;16.77;14.18;;;30.40;41.90;;;;;;4936788;29;20491;-74
2021/06/09 11:06:59;;;;;;;16.25;14.07;;;30.50;43.80;;;;;;4936778;29;20384;-75
2021/06/09 11:09:29;;;;;;;20.23;17.85;;;30.60;45.30;;;;;;4936593;29;20019;-75
2021/06/09 11:12:13;;;;;;;21.30;19.13;;;30.50;40.40;;;;;;4936736;29;20031;-74
2021/06/09 11:14:59;;;;;;;18.95;16.02;;;30.50;41.00;;;;;;4939674;29;20047;-74
2021/06/09 11:17:44;;;;;;;12.93;11.30;;;30.50;40.40;;;;;;4957282;29;20039;-75
2021/06/09 11:20:18;;;;;;;13.27;11.52;;;30.60;43.70;;;;;;4954444;28;20166;-74
2021/06/09 11:22:47;;;;;;;16.25;13.85;;;30.60;40.10;;;;;;4954295;29;20050;-74
2021/06/09 11:25:37;;;;;;;13.77;10.73;;;30.60;40.40;;;;;;4954496;29;20031;-74
2021/06/09 11:28:09;;;;;;;14.80;12.13;;;30.80;44.80;;;;;;4948196;28;20061;-73
2021/06/09 11:30:35;;;;;;;14.10;10.82;;;31.00;43.40;;;;;;4948218;29;20022;-75
2021/06/09 11:33:04;;;;;;;14.75;13.23;;;31.10;44.80;;;;;;4954094;29;20059;-77
2021/06/09 11:35:47;;;;;;;13.25;11.80;;;31.10;41.90;;;;;;4953950;29;20037;-74
2021/06/09 11:38:13;;;;;;;12.02;10.02;;;31.10;41.70;;;;;;4936784;29;20036;-75
2021/06/09 11:41:03;;;;;;;12.25;9.52;;;31.10;44.00;;;;;;4936570;29;20051;-75
2021/06/09 11:43:34;;;;;;;;;;;31.10;42.20;;;;;;4955978;28;20051;-75
2021/06/09 11:46:11;;;;;;;11.75;9.40;;;31.10;41.40;;;;;;4958062;29;19906;-75
2021/06/09 11:48:39;;;;;;;11.77;8.02;;;30.90;44.20;;;;;;4957701;29;20026;-74
2021/06/09 11:51:17;;;;;;;8.70;6.55;;;30.60;41.40;;;;;;4941080;29;20027;-73
2021/06/09 11:53:45;;;;;;;13.88;11.50;;;30.70;42.00;;;;;;4945073;29;20039;-73
2021/06/09 11:56:31;;;;;;;18.17;12.88;;;30.70;43.40;;;;;;4959552;28;20035;-73
2021/06/09 11:59:03;;;;;;;14.65;10.05;;;30.50;39.30;;;;;;4966112;29;20052;-75
2021/06/09 12:01:58;;;;;;;9.75;8.50;;;30.30;42.80;;;;;;4971064;29;20073;-77
2021/06/09 12:04:28;;;;;;;14.82;12.15;;;30.60;41.70;;;;;;4956805;28;20035;-76
2021/06/09 12:06:59;;;;;;;13.73;10.10;;;30.70;39.50;;;;;;4941033;29;20126;-75
2021/06/09 12:09:31;;;;;;;15.55;11.10;;;30.70;39.00;;;;;;4940685;29;20027;-76
2021/06/09 12:11:59;;;;;;;11.23;10.02;;;30.70;39.00;;;;;;4943184;29;20054;-77
2021/06/09 12:14:30;;;;;;;15.10;11.45;;;30.60;40.40;;;;;;4960553;29;20043;-77
2021/06/09 12:17:11;;;;;;;10.82;9.15;;;30.70;38.90;;;;;;4941218;29;20039;-76
2021/06/09 12:19:37;;;;;;;8.77;6.60;;;30.70;38.30;;;;;;4940217;29;20023;-77
2021/06/09 12:22:08;;;;;;;11.88;8.43;;;30.80;39.30;;;;;;4948519;29;20024;-75
2021/06/09 12:24:35;;;;;;;10.57;8.18;;;31.00;41.30;;;;;;4973110;29;20033;-77
2021/06/09 12:27:09;;;;;;;13.40;9.70;;;31.10;41.40;;;;;;4975147;29;20023;-75
2021/06/09 12:29:39;;;;;;;9.43;7.97;;;31.00;37.20;;;;;;4943359;29;20510;-75
2021/06/09 12:32:17;;;;;;;8.35;6.88;;;31.10;39.30;;;;;;4939887;29;20028;-75
2021/06/09 12:34:49;;;;;;;16.15;12.65;;;31.10;37.10;;;;;;4939282;29;20418;-76
2021/06/09 12:37:15;;;;;;;11.45;8.90;;;31.10;39.00;;;;;;4956815;29;20027;-76
2021/06/09 12:39:40;;;;;;;10.10;7.53;;;31.30;40.60;;;;;;4956495;29;20027;-76
2021/06/09 12:42:14;;;;;;;10.15;8.52;;;31.40;40.10;;;;;;4955779;29;20630;-76
2021/06/09 12:44:48;;;;;;;12.70;10.55;;;31.40;41.50;;;;;;4939510;29;20226;-76